createdAt,value
2024-01-10T00:02:39.019Z,-5.76
2024-01-10T00:05:42.525Z,-5.77
2024-01-10T00:08:45.669Z,-5.85
2024-01-10T00:11:50.185Z,-5.88
2024-01-10T00:14:53.121Z,-5.92
2024-01-10T00:17:57.129Z,-5.97
2024-01-10T00:21:00.151Z,-5.96
2024-01-10T00:24:03.574Z,-5.98
2024-01-10T00:27:06.788Z,-5.99
2024-01-10T00:30:10.314Z,-6.00
2024-01-10T00:33:13.644Z,-5.94
2024-01-10T00:36:17.023Z,-6.00
2024-01-10T00:39:20.156Z,-5.99
2024-01-10T00:42:23.648Z,-5.98
2024-01-10T00:45:27.309Z,-5.97
2024-01-10T00:48:34.143Z,-5.99
2024-01-10T00:51:38.493Z,-6.00
2024-01-10T00:54:52.178Z,-6.02
2024-01-10T00:57:56.180Z,-6.09
2024-01-10T01:01:00.854Z,-6.06
2024-01-10T01:04:05.055Z,-6.08
2024-01-10T01:07:09.650Z,-6.14
2024-01-10T01:10:14.085Z,-6.14
2024-01-10T01:13:18.909Z,-6.16
2024-01-10T01:16:25.742Z,-6.19
2024-01-10T01:19:30.348Z,-6.22
2024-01-10T01:22:35.637Z,-6.23
2024-01-10T01:25:40.292Z,-6.29
2024-01-10T01:28:44.109Z,-6.35
2024-01-10T01:31:47.705Z,-6.30
2024-01-10T01:34:55.432Z,-6.35
2024-01-10T01:38:00.237Z,-6.33
2024-01-10T01:41:04.506Z,-6.36
2024-01-10T01:44:09.141Z,-6.36
2024-01-10T01:47:14.701Z,-6.39
2024-01-10T01:50:20.540Z,-6.46
2024-01-10T01:53:25.219Z,-6.49
2024-01-10T01:56:30.790Z,-6.50
2024-01-10T01:59:35.653Z,-6.46
2024-01-10T02:02:39.734Z,-6.46
2024-01-10T02:05:43.339Z,-6.50
2024-01-10T02:08:47.355Z,-6.51
2024-01-10T02:11:50.424Z,-6.50
2024-01-10T02:14:57.230Z,-6.51
2024-01-10T02:18:00.517Z,-6.61
2024-01-10T02:21:04.026Z,-6.63
2024-01-10T02:24:07.065Z,-6.63
2024-01-10T02:27:10.419Z,-6.62
2024-01-10T02:30:13.870Z,-6.61
2024-01-10T02:33:17.391Z,-6.62
2024-01-10T02:36:20.463Z,-6.67
2024-01-10T02:39:24.129Z,-6.72
2024-01-10T02:42:29.715Z,-6.67
2024-01-10T02:45:37.097Z,-6.67
2024-01-10T02:48:40.530Z,-6.66
2024-01-10T02:51:44.229Z,-6.68
2024-01-10T02:54:47.798Z,-6.73
2024-01-10T02:57:55.084Z,-6.71
2024-01-10T03:00:59.277Z,-6.71
2024-01-10T03:04:03.626Z,-6.70
2024-01-10T03:07:08.795Z,-6.75
2024-01-10T03:10:12.086Z,-6.77
2024-01-10T03:13:15.921Z,-6.82
2024-01-10T03:16:19.969Z,-6.82
2024-01-10T03:19:23.004Z,-6.82
2024-01-10T03:22:26.279Z,-6.80
2024-01-10T03:25:29.389Z,-6.79
2024-01-10T03:28:33.137Z,-6.81
2024-01-10T03:31:36.231Z,-6.79
2024-01-10T03:34:40.526Z,-6.80
2024-01-10T03:37:43.522Z,-6.84
2024-01-10T03:40:47.225Z,-6.89
2024-01-10T03:43:51.867Z,-6.89
2024-01-10T03:46:55.114Z,-6.89
2024-01-10T03:49:58.726Z,-6.93
2024-01-10T03:53:03.004Z,-6.99
2024-01-10T03:56:07.985Z,-6.98
2024-01-10T03:59:11.203Z,-6.98
2024-01-10T04:02:14.975Z,-7.03
2024-01-10T04:05:18.481Z,-7.09
2024-01-10T04:08:24.525Z,-7.05
2024-01-10T04:11:28.078Z,-7.12
2024-01-10T04:14:31.090Z,-7.15
2024-01-10T04:17:34.885Z,-7.17
2024-01-10T04:20:38.026Z,-7.15
2024-01-10T04:23:41.543Z,-7.13
2024-01-10T04:26:44.477Z,-7.10
2024-01-10T04:29:48.944Z,-7.05
2024-01-10T04:32:52.035Z,-7.03
2024-01-10T04:35:55.240Z,-7.05
2024-01-10T04:38:58.393Z,-7.06
2024-01-10T04:42:02.434Z,-7.09
2024-01-10T04:45:08.642Z,-7.11
2024-01-10T04:48:13.363Z,-7.13
2024-01-10T04:51:18.331Z,-7.16
2024-01-10T04:54:21.872Z,-7.19
2024-01-10T04:57:25.409Z,-7.22
2024-01-10T05:00:29.039Z,-7.27
2024-01-10T05:03:32.443Z,-7.31
2024-01-10T05:06:35.841Z,-7.32
2024-01-10T05:09:38.830Z,-7.31
2024-01-10T05:12:43.447Z,-7.33
2024-01-10T05:15:46.680Z,-7.33
2024-01-10T05:18:50.258Z,-7.27
2024-01-10T05:21:53.912Z,-7.20
2024-01-10T05:24:59.145Z,-7.17
2024-01-10T05:28:05.690Z,-7.14
2024-01-10T05:31:09.051Z,-7.23
2024-01-10T05:34:12.326Z,-7.33
2024-01-10T05:37:16.009Z,-7.31
2024-01-10T05:40:21.358Z,-7.34
2024-01-10T05:43:24.857Z,-7.37
2024-01-10T05:46:35.309Z,-7.39
2024-01-10T05:49:51.804Z,-7.46
2024-01-10T05:52:54.976Z,-7.45
2024-01-10T05:55:59.214Z,-7.51
2024-01-10T05:59:02.742Z,-7.49
2024-01-10T06:02:07.230Z,-7.49
2024-01-10T06:05:11.439Z,-7.54
2024-01-10T06:08:15.595Z,-7.60
2024-01-10T06:11:19.587Z,-7.62
2024-01-10T06:14:22.706Z,-7.63
2024-01-10T06:17:26.124Z,-7.63
2024-01-10T06:20:33.216Z,-7.65
2024-01-10T06:23:36.871Z,-7.67
2024-01-10T06:26:42.040Z,-7.66
2024-01-10T06:29:47.379Z,-7.67
2024-01-10T06:32:50.416Z,-7.65
2024-01-10T06:35:55.695Z,-7.66
2024-01-10T06:39:04.439Z,-7.57
2024-01-10T06:42:10.000Z,-7.54
2024-01-10T06:45:13.733Z,-7.54
2024-01-10T06:48:21.251Z,-7.47
2024-01-10T06:51:24.260Z,-7.45
2024-01-10T06:54:28.894Z,-7.45
2024-01-10T06:57:31.946Z,-7.34
2024-01-10T07:00:35.415Z,-7.28
2024-01-10T07:03:39.340Z,-7.23
2024-01-10T07:06:43.430Z,-7.12
2024-01-10T07:09:46.830Z,-6.96
2024-01-10T07:12:49.904Z,-6.91
2024-01-10T07:15:53.812Z,-6.87
2024-01-10T07:18:57.658Z,-6.79
2024-01-10T07:22:02.104Z,-6.77
2024-01-10T07:25:06.610Z,-6.71
2024-01-10T07:28:10.405Z,-6.73
2024-01-10T07:31:14.200Z,-6.65
2024-01-10T07:34:17.366Z,-6.51
2024-01-10T07:37:22.325Z,-6.41
2024-01-10T07:40:26.595Z,-6.43
2024-01-10T07:43:32.817Z,-6.40
2024-01-10T07:46:37.234Z,-6.32
2024-01-10T07:49:40.497Z,-6.24
2024-01-10T07:52:45.412Z,-6.12
2024-01-10T07:55:51.786Z,-6.05
2024-01-10T07:58:56.367Z,-6.04
2024-01-10T08:02:02.356Z,-5.97
2024-01-10T08:05:07.231Z,-5.75
2024-01-10T08:08:10.584Z,-5.65
2024-01-10T08:11:13.958Z,-5.60
2024-01-10T08:14:17.574Z,-5.52
2024-01-10T08:17:21.345Z,-5.35
2024-01-10T08:20:24.481Z,-5.28
2024-01-10T08:23:28.064Z,-5.31
2024-01-10T08:26:31.882Z,-5.07
2024-01-10T08:29:38.282Z,-4.92
2024-01-10T08:32:41.402Z,-4.87
2024-01-10T08:35:44.809Z,-4.74
2024-01-10T08:38:48.635Z,-4.62
2024-01-10T08:41:51.955Z,-4.78
2024-01-10T08:44:54.905Z,-4.64
2024-01-10T08:48:00.624Z,-4.43
2024-01-10T08:51:06.057Z,-4.33
2024-01-10T08:54:10.452Z,-4.20
2024-01-10T08:57:13.376Z,-4.10
2024-01-10T09:00:21.589Z,-3.92
2024-01-10T09:03:24.842Z,-3.81
2024-01-10T09:06:28.969Z,-3.66
2024-01-10T09:09:32.810Z,-3.53
2024-01-10T09:12:36.514Z,-3.44
2024-01-10T09:15:39.486Z,-3.41
2024-01-10T09:18:42.903Z,-3.50
2024-01-10T09:21:47.088Z,-3.43
2024-01-10T09:24:50.373Z,-3.19
2024-01-10T09:27:53.359Z,-3.26
2024-01-10T09:30:56.754Z,-3.15
2024-01-10T09:34:00.369Z,-3.20
2024-01-10T09:37:05.641Z,-2.96
2024-01-10T09:40:14.184Z,-2.73
2024-01-10T09:43:17.982Z,-2.95
2024-01-10T09:46:24.334Z,-2.70
2024-01-10T09:49:27.940Z,-2.59
2024-01-10T09:52:39.028Z,-2.68
2024-01-10T09:55:43.558Z,-2.47
2024-01-10T09:58:50.748Z,-2.27
2024-01-10T10:01:54.892Z,-2.13
2024-01-10T10:05:01.204Z,-2.15
2024-01-10T10:08:05.275Z,-1.99
2024-01-10T10:11:14.803Z,-2.44
2024-01-10T10:14:20.091Z,-2.03
2024-01-10T10:17:26.343Z,-1.88
2024-01-10T10:20:37.634Z,-1.77
2024-01-10T10:23:42.854Z,-1.72
2024-01-10T10:26:45.867Z,-2.02
2024-01-10T10:29:50.024Z,-1.79
2024-01-10T10:32:53.159Z,-1.46
2024-01-10T10:35:59.577Z,-1.61
2024-01-10T10:39:04.288Z,-1.49
2024-01-10T10:42:10.675Z,-1.25
2024-01-10T10:45:20.698Z,-1.48
2024-01-10T10:48:24.353Z,-1.25
2024-01-10T10:51:27.511Z,-0.96
2024-01-10T10:54:32.986Z,-0.87
2024-01-10T10:57:36.333Z,-0.97
2024-01-10T11:00:39.872Z,-0.81
2024-01-10T11:03:45.942Z,-0.53
2024-01-10T11:06:52.413Z,-0.82
2024-01-10T11:09:56.045Z,-0.27
2024-01-10T11:13:26.165Z,-0.40
2024-01-10T11:16:50.964Z,-0.25
2024-01-10T11:20:23.033Z,-0.34
2024-01-10T11:23:42.933Z,-0.23
2024-01-10T11:26:48.131Z,0.43
2024-01-10T11:29:51.656Z,0.50
2024-01-10T11:32:59.407Z,0.67
2024-01-10T11:36:13.603Z,0.40
2024-01-10T11:39:18.187Z,1.27
2024-01-10T11:42:41.881Z,1.86
2024-01-10T11:45:56.713Z,2.16
2024-01-10T11:49:00.603Z,2.12
2024-01-10T11:52:04.918Z,2.81
2024-01-10T11:55:09.905Z,4.71
2024-01-10T11:58:13.277Z,5.34
2024-01-10T12:01:17.663Z,4.02
2024-01-10T12:07:29.266Z,5.20
2024-01-10T12:10:38.962Z,6.34
2024-01-10T12:13:43.345Z,5.64
2024-01-10T12:16:46.815Z,6.65
2024-01-10T12:19:50.596Z,5.56
2024-01-10T12:22:54.022Z,6.57
2024-01-10T12:25:57.018Z,5.68
2024-01-10T12:29:01.373Z,6.47
2024-01-10T12:32:05.134Z,6.91
2024-01-10T12:35:09.148Z,5.98
2024-01-10T12:38:12.242Z,6.61
2024-01-10T12:41:22.168Z,9.24
2024-01-10T12:44:29.469Z,8.61
2024-01-10T12:47:37.423Z,10.66
2024-01-10T12:50:40.847Z,8.76
2024-01-10T12:53:45.220Z,10.02
2024-01-10T12:56:48.448Z,10.37
2024-01-10T12:59:52.817Z,10.00
2024-01-10T13:02:56.080Z,9.02
2024-01-10T13:06:00.047Z,12.26
2024-01-10T13:09:03.027Z,10.82
2024-01-10T13:12:06.779Z,9.45
2024-01-10T13:15:10.196Z,8.40
2024-01-10T13:18:14.810Z,7.52
2024-01-10T13:21:17.942Z,11.35
2024-01-10T13:24:22.407Z,11.57
2024-01-10T13:27:25.345Z,8.87
2024-01-10T13:30:30.533Z,8.85
2024-01-10T13:33:35.836Z,9.73
2024-01-10T13:36:42.563Z,10.92
2024-01-10T13:39:48.196Z,10.91
2024-01-10T13:42:52.155Z,8.57
2024-01-10T13:45:55.233Z,10.73
2024-01-10T13:48:58.660Z,7.45
2024-01-10T13:52:01.612Z,7.00
2024-01-10T13:55:07.868Z,8.54
2024-01-10T13:58:11.843Z,9.83
2024-01-10T14:01:15.663Z,8.63
2024-01-10T14:04:18.961Z,9.69
2024-01-10T14:07:23.247Z,8.75
2024-01-10T14:10:26.486Z,9.44
2024-01-10T14:13:29.499Z,7.64
2024-01-10T14:16:32.739Z,9.01
2024-01-10T14:19:35.946Z,9.38
2024-01-10T14:22:39.357Z,8.99
2024-01-10T14:25:43.838Z,9.44
2024-01-10T14:28:47.248Z,9.36
2024-01-10T14:32:03.445Z,9.88
2024-01-10T14:35:15.111Z,8.56
2024-01-10T14:38:19.116Z,8.66
2024-01-10T14:41:22.657Z,7.30
2024-01-10T14:44:25.724Z,7.08
2024-01-10T14:47:33.253Z,6.14
2024-01-10T14:50:36.471Z,5.70
2024-01-10T14:53:41.156Z,5.04
2024-01-10T14:56:44.953Z,4.80
2024-01-10T14:59:49.679Z,3.86
2024-01-10T15:02:52.832Z,3.28
2024-01-10T15:05:57.625Z,2.56
2024-01-10T15:09:04.696Z,2.05
2024-01-10T15:12:10.030Z,1.57
2024-01-10T15:15:14.164Z,1.22
2024-01-10T15:18:17.530Z,0.98
2024-01-10T15:21:20.963Z,0.71
2024-01-10T15:24:24.213Z,0.44
2024-01-10T15:27:29.326Z,0.20
2024-01-10T15:30:38.426Z,-0.04
2024-01-10T15:33:48.168Z,-0.24
2024-01-10T15:36:53.353Z,-0.48
2024-01-10T15:39:56.340Z,-0.65
2024-01-10T15:43:01.321Z,-0.84
2024-01-10T15:46:07.852Z,-0.93
2024-01-10T15:49:12.562Z,-1.09
2024-01-10T15:52:16.972Z,-1.22
2024-01-10T15:55:21.241Z,-1.39
2024-01-10T15:58:25.734Z,-1.46
2024-01-10T16:01:30.123Z,-1.55
2024-01-10T16:04:33.500Z,-1.69
2024-01-10T16:07:37.661Z,-1.73
2024-01-10T16:10:42.538Z,-1.83
2024-01-10T16:13:45.789Z,-1.92
2024-01-10T16:19:52.822Z,-1.99
2024-01-10T16:22:56.116Z,-2.01
2024-01-10T16:29:02.713Z,-2.10
2024-01-10T16:32:08.705Z,-2.17
2024-01-10T16:35:16.363Z,-2.24
2024-01-10T16:38:21.217Z,-2.31
2024-01-10T16:41:25.361Z,-2.35
2024-01-10T16:44:28.391Z,-2.43
2024-01-10T16:47:32.370Z,-2.51
2024-01-10T16:50:37.384Z,-2.53
2024-01-10T16:53:40.532Z,-2.56
2024-01-10T16:56:44.475Z,-2.60
2024-01-10T16:59:48.048Z,-2.67
2024-01-10T17:05:54.893Z,-2.77
2024-01-10T17:08:58.044Z,-2.82
2024-01-10T17:12:02.014Z,-2.83
2024-01-10T17:15:05.358Z,-2.82
2024-01-10T17:18:08.882Z,-2.86
2024-01-10T17:21:12.187Z,-2.93
2024-01-10T17:24:15.673Z,-3.00
2024-01-10T17:27:20.356Z,-2.99
2024-01-10T17:30:30.921Z,-3.00
2024-01-10T17:33:35.340Z,-3.02
2024-01-10T17:36:38.679Z,-3.09
2024-01-10T17:39:42.122Z,-3.13
2024-01-10T17:42:45.468Z,-3.17
2024-01-10T17:45:48.644Z,-3.19
2024-01-10T17:48:53.701Z,-3.19
2024-01-10T17:51:57.448Z,-3.20
2024-01-10T17:55:01.042Z,-3.21
2024-01-10T17:58:04.304Z,-3.23
2024-01-10T18:01:08.425Z,-3.24
2024-01-10T18:04:14.750Z,-3.30
2024-01-10T18:07:18.395Z,-3.30
2024-01-10T18:10:22.129Z,-3.33
2024-01-10T18:13:25.396Z,-3.43
2024-01-10T18:16:30.907Z,-3.46
2024-01-10T18:19:34.349Z,-3.49
2024-01-10T18:22:38.159Z,-3.44
2024-01-10T18:25:41.817Z,-3.49
2024-01-10T18:28:45.230Z,-3.51
2024-01-10T18:31:48.993Z,-3.60
2024-01-10T18:34:52.495Z,-3.65
2024-01-10T18:37:55.821Z,-3.70
2024-01-10T18:40:59.267Z,-3.77
2024-01-10T18:44:05.218Z,-3.80
2024-01-10T18:47:10.571Z,-3.84
2024-01-10T18:50:15.034Z,-3.84
2024-01-10T18:53:18.839Z,-3.84
2024-01-10T18:56:22.575Z,-3.84
2024-01-10T18:59:28.407Z,-3.91
2024-01-10T19:02:31.793Z,-3.89
2024-01-10T19:05:35.541Z,-3.91
2024-01-10T19:08:38.870Z,-3.87
2024-01-10T19:11:42.758Z,-3.91
2024-01-10T19:14:48.807Z,-3.97
2024-01-10T19:17:52.228Z,-4.00
2024-01-10T19:20:55.249Z,-4.05
2024-01-10T19:23:58.630Z,-4.03
2024-01-10T19:27:04.430Z,-4.04
2024-01-10T19:30:13.064Z,-3.99
2024-01-10T19:33:16.372Z,-3.91
2024-01-10T19:36:22.003Z,-3.94
2024-01-10T19:39:26.918Z,-3.95
2024-01-10T19:42:31.515Z,-3.96
2024-01-10T19:45:36.772Z,-3.99
2024-01-10T19:48:41.070Z,-3.98
2024-01-10T19:51:47.378Z,-4.02
2024-01-10T19:54:51.098Z,-4.00
2024-01-10T19:57:54.456Z,-4.00
2024-01-10T20:00:58.489Z,-4.07
2024-01-10T20:04:01.792Z,-4.16
2024-01-10T20:07:06.282Z,-4.19
2024-01-10T20:10:11.136Z,-4.29
2024-01-10T20:13:16.153Z,-4.39
2024-01-10T20:16:21.765Z,-4.44
2024-01-10T20:19:27.912Z,-4.41
2024-01-10T20:22:31.645Z,-4.48
2024-01-10T20:25:35.098Z,-4.52
2024-01-10T20:28:39.595Z,-4.57
2024-01-10T20:31:42.775Z,-4.60
2024-01-10T20:34:48.535Z,-4.58
2024-01-10T20:37:52.548Z,-4.54
2024-01-10T20:40:56.066Z,-4.56
2024-01-10T20:43:59.849Z,-4.57
2024-01-10T20:47:03.745Z,-4.55
2024-01-10T20:50:09.686Z,-4.59
2024-01-10T20:53:16.573Z,-4.60
2024-01-10T20:56:19.807Z,-4.63
2024-01-10T20:59:23.181Z,-4.63
2024-01-10T21:02:28.099Z,-4.68
2024-01-10T21:05:31.636Z,-4.73
2024-01-10T21:08:34.759Z,-4.75
2024-01-10T21:11:38.670Z,-4.77
2024-01-10T21:14:46.505Z,-4.80
2024-01-10T21:17:50.433Z,-4.82
2024-01-10T21:20:53.761Z,-4.92
2024-01-10T21:23:57.139Z,-4.90
2024-01-10T21:27:01.286Z,-4.85
2024-01-10T21:30:06.206Z,-4.88
2024-01-10T21:33:12.548Z,-4.89
2024-01-10T21:36:16.015Z,-4.95
2024-01-10T21:39:19.399Z,-5.03
2024-01-10T21:42:24.485Z,-5.07
2024-01-10T21:45:27.579Z,-5.09
2024-01-10T21:48:30.891Z,-5.17
2024-01-10T21:51:34.777Z,-5.17
2024-01-10T21:54:38.103Z,-5.22
2024-01-10T21:57:42.017Z,-5.27
2024-01-10T22:00:45.510Z,-5.32
2024-01-10T22:03:51.155Z,-5.29
2024-01-10T22:06:54.129Z,-5.19
2024-01-10T22:09:57.969Z,-5.08
2024-01-10T22:13:01.016Z,-5.10
2024-01-10T22:16:04.904Z,-5.18
2024-01-10T22:19:10.288Z,-5.22
2024-01-10T22:22:13.516Z,-5.26
2024-01-10T22:25:16.264Z,-5.33
2024-01-10T22:28:19.606Z,-5.34
2024-01-10T22:31:22.564Z,-5.37
2024-01-10T22:34:26.908Z,-5.41
2024-01-10T22:37:30.058Z,-5.43
2024-01-10T22:40:33.703Z,-5.45
2024-01-10T22:43:36.733Z,-5.48
2024-01-10T22:46:40.010Z,-5.47
2024-01-10T22:49:43.348Z,-5.51
2024-01-10T22:52:46.529Z,-5.50
2024-01-10T22:55:49.381Z,-5.50
2024-01-10T22:58:55.608Z,-5.51
2024-01-10T23:01:58.644Z,-5.49
2024-01-10T23:05:01.910Z,-5.39
2024-01-10T23:08:05.446Z,-5.32
2024-01-10T23:11:08.838Z,-5.30
2024-01-10T23:14:11.915Z,-5.20
2024-01-10T23:17:15.233Z,-5.29
2024-01-10T23:20:20.075Z,-5.33
2024-01-10T23:23:23.514Z,-5.32
2024-01-10T23:26:29.423Z,-5.32
2024-01-10T23:29:32.881Z,-5.34
2024-01-10T23:32:37.526Z,-5.36
2024-01-10T23:35:48.398Z,-5.37
2024-01-10T23:38:54.009Z,-5.42
2024-01-10T23:41:57.194Z,-5.51
2024-01-10T23:45:00.804Z,-5.55
2024-01-10T23:48:04.831Z,-5.61
2024-01-10T23:51:07.828Z,-5.61
2024-01-10T23:54:11.205Z,-5.62
2024-01-10T23:57:14.740Z,-5.64
